sensor_id;sensor_type;location;lat;lon;timestamp;P1;durP1;ratioP1;P2;durP2;ratioP2
72920;SDS011;61064;51.654;5.476;2024-01-11T00:00:59;24.65;;;9.98;;
72920;SDS011;61064;51.654;5.476;2024-01-11T00:03:25;27.53;;;9.90;;
72920;SDS011;61064;51.654;5.476;2024-01-11T00:05:50;25.55;;;9.93;;
72920;SDS011;61064;51.654;5.476;2024-01-11T00:08:16;23.97;;;9.43;;
72920;SDS011;61064;51.654;5.476;2024-01-11T00:10:41;25.17;;;10.30;;
72920;SDS011;61064;51.654;5.476;2024-01-11T00:13:06;25.87;;;9.73;;
72920;SDS011;61064;51.654;5.476;2024-01-11T00:15:32;24.15;;;9.65;;
72920;SDS011;61064;51.654;5.476;2024-01-11T00:17:59;25.13;;;10.30;;
72920;SDS011;61064;51.654;5.476;2024-01-11T00:20:25;26.07;;;11.30;;
72920;SDS011;61064;51.654;5.476;2024-01-11T00:22:50;27.35;;;10.75;;
72920;SDS011;61064;51.654;5.476;2024-01-11T00:25:15;24.92;;;10.20;;
72920;SDS011;61064;51.654;5.476;2024-01-11T00:27:41;25.47;;;9.33;;
72920;SDS011;61064;51.654;5.476;2024-01-11T00:30:06;27.50;;;10.00;;
72920;SDS011;61064;51.654;5.476;2024-01-11T00:32:32;22.67;;;8.98;;
72920;SDS011;61064;51.654;5.476;2024-01-11T00:34:57;22.77;;;9.03;;
72920;SDS011;61064;51.654;5.476;2024-01-11T00:37:23;24.63;;;9.20;;
72920;SDS011;61064;51.654;5.476;2024-01-11T00:39:50;22.13;;;9.20;;
72920;SDS011;61064;51.654;5.476;2024-01-11T00:42:15;20.77;;;8.20;;
72920;SDS011;61064;51.654;5.476;2024-01-11T00:44:40;25.30;;;9.97;;
72920;SDS011;61064;51.654;5.476;2024-01-11T00:47:10;22.42;;;9.10;;
72920;SDS011;61064;51.654;5.476;2024-01-11T00:49:36;26.43;;;9.93;;
72920;SDS011;61064;51.654;5.476;2024-01-11T00:52:04;26.00;;;8.82;;
72920;SDS011;61064;51.654;5.476;2024-01-11T00:54:29;23.17;;;9.03;;
72920;SDS011;61064;51.654;5.476;2024-01-11T00:56:57;26.02;;;9.98;;
72920;SDS011;61064;51.654;5.476;2024-01-11T00:59:22;26.23;;;9.67;;
72920;SDS011;61064;51.654;5.476;2024-01-11T01:01:48;26.02;;;9.30;;
72920;SDS011;61064;51.654;5.476;2024-01-11T01:04:14;23.73;;;10.13;;
72920;SDS011;61064;51.654;5.476;2024-01-11T01:06:40;25.63;;;9.05;;
72920;SDS011;61064;51.654;5.476;2024-01-11T01:09:08;23.48;;;9.30;;
72920;SDS011;61064;51.654;5.476;2024-01-11T01:11:41;27.50;;;9.13;;
72920;SDS011;61064;51.654;5.476;2024-01-11T01:14:06;23.33;;;8.48;;
72920;SDS011;61064;51.654;5.476;2024-01-11T01:16:34;29.87;;;9.43;;
72920;SDS011;61064;51.654;5.476;2024-01-11T01:19:06;26.48;;;9.20;;
72920;SDS011;61064;51.654;5.476;2024-01-11T01:21:31;26.45;;;9.65;;
72920;SDS011;61064;51.654;5.476;2024-01-11T01:23:59;24.80;;;9.40;;
72920;SDS011;61064;51.654;5.476;2024-01-11T01:26:25;25.93;;;8.80;;
72920;SDS011;61064;51.654;5.476;2024-01-11T01:28:51;24.13;;;9.57;;
72920;SDS011;61064;51.654;5.476;2024-01-11T01:31:16;30.83;;;11.57;;
72920;SDS011;61064;51.654;5.476;2024-01-11T01:33:41;33.43;;;12.70;;
72920;SDS011;61064;51.654;5.476;2024-01-11T01:36:10;35.27;;;15.07;;
72920;SDS011;61064;51.654;5.476;2024-01-11T01:38:35;33.50;;;14.88;;
72920;SDS011;61064;51.654;5.476;2024-01-11T01:41:01;33.70;;;13.87;;
72920;SDS011;61064;51.654;5.476;2024-01-11T01:43:26;34.63;;;13.60;;
72920;SDS011;61064;51.654;5.476;2024-01-11T01:45:52;43.53;;;17.17;;
72920;SDS011;61064;51.654;5.476;2024-01-11T01:48:20;65.90;;;22.17;;
72920;SDS011;61064;51.654;5.476;2024-01-11T01:50:47;58.63;;;20.70;;
72920;SDS011;61064;51.654;5.476;2024-01-11T01:53:22;66.75;;;21.95;;
72920;SDS011;61064;51.654;5.476;2024-01-11T01:55:49;65.30;;;21.77;;
72920;SDS011;61064;51.654;5.476;2024-01-11T01:58:16;67.70;;;23.67;;
72920;SDS011;61064;51.654;5.476;2024-01-11T02:00:44;40.75;;;14.90;;
72920;SDS011;61064;51.654;5.476;2024-01-11T02:03:10;37.42;;;13.95;;
72920;SDS011;61064;51.654;5.476;2024-01-11T02:05:45;35.55;;;11.73;;
72920;SDS011;61064;51.654;5.476;2024-01-11T02:08:12;30.80;;;11.23;;
72920;SDS011;61064;51.654;5.476;2024-01-11T02:10:41;27.33;;;10.37;;
72920;SDS011;61064;51.654;5.476;2024-01-11T02:13:07;25.52;;;10.25;;
72920;SDS011;61064;51.654;5.476;2024-01-11T02:15:32;25.67;;;9.25;;
72920;SDS011;61064;51.654;5.476;2024-01-11T02:17:59;32.80;;;11.30;;
72920;SDS011;61064;51.654;5.476;2024-01-11T02:20:25;31.07;;;12.00;;
72920;SDS011;61064;51.654;5.476;2024-01-11T02:22:53;30.83;;;11.68;;
72920;SDS011;61064;51.654;5.476;2024-01-11T02:25:23;30.05;;;11.45;;
72920;SDS011;61064;51.654;5.476;2024-01-11T02:27:49;31.37;;;13.57;;
72920;SDS011;61064;51.654;5.476;2024-01-11T02:30:15;31.13;;;13.27;;
72920;SDS011;61064;51.654;5.476;2024-01-11T02:32:45;36.50;;;13.57;;
72920;SDS011;61064;51.654;5.476;2024-01-11T02:35:13;34.33;;;13.93;;
72920;SDS011;61064;51.654;5.476;2024-01-11T02:37:40;29.83;;;12.35;;
72920;SDS011;61064;51.654;5.476;2024-01-11T02:40:08;30.53;;;12.10;;
72920;SDS011;61064;51.654;5.476;2024-01-11T02:42:36;32.15;;;11.77;;
72920;SDS011;61064;51.654;5.476;2024-01-11T02:45:02;30.20;;;12.45;;
72920;SDS011;61064;51.654;5.476;2024-01-11T02:47:28;28.98;;;11.85;;
72920;SDS011;61064;51.654;5.476;2024-01-11T02:49:53;33.77;;;12.10;;
72920;SDS011;61064;51.654;5.476;2024-01-11T02:52:19;27.47;;;11.57;;
72920;SDS011;61064;51.654;5.476;2024-01-11T02:54:44;31.93;;;12.53;;
72920;SDS011;61064;51.654;5.476;2024-01-11T02:57:12;37.65;;;14.93;;
72920;SDS011;61064;51.654;5.476;2024-01-11T02:59:37;37.07;;;13.80;;
72920;SDS011;61064;51.654;5.476;2024-01-11T03:02:03;37.50;;;14.97;;
72920;SDS011;61064;51.654;5.476;2024-01-11T03:04:29;37.03;;;12.95;;
72920;SDS011;61064;51.654;5.476;2024-01-11T03:06:54;29.30;;;11.60;;
72920;SDS011;61064;51.654;5.476;2024-01-11T03:09:19;27.30;;;10.40;;
72920;SDS011;61064;51.654;5.476;2024-01-11T03:11:45;31.60;;;11.50;;
72920;SDS011;61064;51.654;5.476;2024-01-11T03:14:10;31.20;;;12.60;;
72920;SDS011;61064;51.654;5.476;2024-01-11T03:16:35;28.63;;;11.37;;
72920;SDS011;61064;51.654;5.476;2024-01-11T03:19:02;30.98;;;13.23;;
72920;SDS011;61064;51.654;5.476;2024-01-11T03:21:30;29.88;;;11.23;;
72920;SDS011;61064;51.654;5.476;2024-01-11T03:23:56;29.70;;;11.73;;
72920;SDS011;61064;51.654;5.476;2024-01-11T03:26:21;34.93;;;13.13;;
72920;SDS011;61064;51.654;5.476;2024-01-11T03:28:47;29.75;;;10.68;;
72920;SDS011;61064;51.654;5.476;2024-01-11T03:31:12;28.27;;;11.40;;
72920;SDS011;61064;51.654;5.476;2024-01-11T03:33:38;28.23;;;9.40;;
72920;SDS011;61064;51.654;5.476;2024-01-11T03:36:07;23.77;;;9.00;;
72920;SDS011;61064;51.654;5.476;2024-01-11T03:38:33;22.35;;;8.50;;
72920;SDS011;61064;51.654;5.476;2024-01-11T03:41:02;25.10;;;9.33;;
72920;SDS011;61064;51.654;5.476;2024-01-11T03:43:33;27.40;;;9.85;;
72920;SDS011;61064;51.654;5.476;2024-01-11T03:45:58;23.33;;;9.13;;
72920;SDS011;61064;51.654;5.476;2024-01-11T03:48:26;29.23;;;10.10;;
72920;SDS011;61064;51.654;5.476;2024-01-11T03:50:52;29.13;;;9.73;;
72920;SDS011;61064;51.654;5.476;2024-01-11T03:53:19;23.50;;;8.77;;
72920;SDS011;61064;51.654;5.476;2024-01-11T03:55:45;24.20;;;8.90;;
72920;SDS011;61064;51.654;5.476;2024-01-11T03:58:10;27.03;;;9.63;;
72920;SDS011;61064;51.654;5.476;2024-01-11T04:00:36;27.52;;;9.48;;
72920;SDS011;61064;51.654;5.476;2024-01-11T04:03:05;23.90;;;9.23;;
72920;SDS011;61064;51.654;5.476;2024-01-11T04:05:44;23.85;;;9.52;;
72920;SDS011;61064;51.654;5.476;2024-01-11T04:08:09;29.37;;;9.70;;
72920;SDS011;61064;51.654;5.476;2024-01-11T04:10:35;24.38;;;9.23;;
72920;SDS011;61064;51.654;5.476;2024-01-11T04:13:00;24.90;;;8.80;;
72920;SDS011;61064;51.654;5.476;2024-01-11T04:15:28;30.95;;;9.05;;
72920;SDS011;61064;51.654;5.476;2024-01-11T04:17:54;25.50;;;10.57;;
72920;SDS011;61064;51.654;5.476;2024-01-11T04:20:19;23.87;;;9.07;;
72920;SDS011;61064;51.654;5.476;2024-01-11T04:22:44;25.43;;;9.53;;
72920;SDS011;61064;51.654;5.476;2024-01-11T04:25:10;24.55;;;8.98;;
72920;SDS011;61064;51.654;5.476;2024-01-11T04:27:36;21.53;;;8.13;;
72920;SDS011;61064;51.654;5.476;2024-01-11T04:30:01;24.13;;;8.90;;
72920;SDS011;61064;51.654;5.476;2024-01-11T04:32:36;24.13;;;8.73;;
72920;SDS011;61064;51.654;5.476;2024-01-11T04:35:02;27.15;;;8.60;;
72920;SDS011;61064;51.654;5.476;2024-01-11T04:37:27;23.98;;;8.82;;
72920;SDS011;61064;51.654;5.476;2024-01-11T04:39:56;22.60;;;8.47;;
72920;SDS011;61064;51.654;5.476;2024-01-11T04:42:26;26.30;;;8.85;;
72920;SDS011;61064;51.654;5.476;2024-01-11T04:44:55;26.17;;;8.90;;
72920;SDS011;61064;51.654;5.476;2024-01-11T04:47:20;23.33;;;8.77;;
72920;SDS011;61064;51.654;5.476;2024-01-11T04:49:48;21.27;;;8.70;;
72920;SDS011;61064;51.654;5.476;2024-01-11T04:52:14;28.35;;;9.48;;
72920;SDS011;61064;51.654;5.476;2024-01-11T04:54:41;25.37;;;8.77;;
72920;SDS011;61064;51.654;5.476;2024-01-11T04:57:07;23.70;;;9.45;;
72920;SDS011;61064;51.654;5.476;2024-01-11T04:59:32;22.50;;;8.60;;
72920;SDS011;61064;51.654;5.476;2024-01-11T05:01:57;21.87;;;8.73;;
72920;SDS011;61064;51.654;5.476;2024-01-11T05:04:23;25.45;;;8.80;;
72920;SDS011;61064;51.654;5.476;2024-01-11T05:06:48;22.85;;;9.23;;
72920;SDS011;61064;51.654;5.476;2024-01-11T05:09:14;22.50;;;8.10;;
72920;SDS011;61064;51.654;5.476;2024-01-11T05:11:39;22.77;;;7.68;;
72920;SDS011;61064;51.654;5.476;2024-01-11T05:14:05;19.88;;;7.75;;
72920;SDS011;61064;51.654;5.476;2024-01-11T05:16:30;24.73;;;8.00;;
72920;SDS011;61064;51.654;5.476;2024-01-11T05:18:56;23.43;;;8.33;;
72920;SDS011;61064;51.654;5.476;2024-01-11T05:21:22;23.27;;;8.95;;
72920;SDS011;61064;51.654;5.476;2024-01-11T05:23:49;18.80;;;7.73;;
72920;SDS011;61064;51.654;5.476;2024-01-11T05:26:16;20.30;;;7.38;;
72920;SDS011;61064;51.654;5.476;2024-01-11T05:28:42;20.17;;;8.10;;
72920;SDS011;61064;51.654;5.476;2024-01-11T05:31:11;22.17;;;7.87;;
72920;SDS011;61064;51.654;5.476;2024-01-11T05:33:39;21.63;;;8.00;;
72920;SDS011;61064;51.654;5.476;2024-01-11T05:36:05;20.17;;;8.07;;
72920;SDS011;61064;51.654;5.476;2024-01-11T05:38:31;20.40;;;7.20;;
72920;SDS011;61064;51.654;5.476;2024-01-11T05:40:57;23.23;;;8.10;;
72920;SDS011;61064;51.654;5.476;2024-01-11T05:43:22;19.10;;;7.50;;
72920;SDS011;61064;51.654;5.476;2024-01-11T05:45:50;21.13;;;7.90;;
72920;SDS011;61064;51.654;5.476;2024-01-11T05:48:16;22.00;;;7.57;;
72920;SDS011;61064;51.654;5.476;2024-01-11T05:50:46;21.92;;;8.15;;
72920;SDS011;61064;51.654;5.476;2024-01-11T05:53:15;20.87;;;8.20;;
72920;SDS011;61064;51.654;5.476;2024-01-11T05:55:42;18.35;;;7.15;;
72920;SDS011;61064;51.654;5.476;2024-01-11T05:58:07;23.30;;;8.37;;
72920;SDS011;61064;51.654;5.476;2024-01-11T06:00:32;18.50;;;7.60;;
72920;SDS011;61064;51.654;5.476;2024-01-11T06:02:58;23.53;;;9.07;;
72920;SDS011;61064;51.654;5.476;2024-01-11T06:05:25;22.63;;;8.37;;
72920;SDS011;61064;51.654;5.476;2024-01-11T06:07:51;23.13;;;8.35;;
72920;SDS011;61064;51.654;5.476;2024-01-11T06:10:16;19.07;;;7.67;;
72920;SDS011;61064;51.654;5.476;2024-01-11T06:12:42;21.42;;;8.05;;
72920;SDS011;61064;51.654;5.476;2024-01-11T06:15:07;24.07;;;8.37;;
72920;SDS011;61064;51.654;5.476;2024-01-11T06:17:36;28.67;;;11.40;;
72920;SDS011;61064;51.654;5.476;2024-01-11T06:20:14;22.45;;;8.07;;
72920;SDS011;61064;51.654;5.476;2024-01-11T06:22:42;26.02;;;8.43;;
72920;SDS011;61064;51.654;5.476;2024-01-11T06:25:08;20.03;;;8.00;;
72920;SDS011;61064;51.654;5.476;2024-01-11T06:27:33;22.40;;;8.57;;
72920;SDS011;61064;51.654;5.476;2024-01-11T06:30:01;21.98;;;7.40;;
72920;SDS011;61064;51.654;5.476;2024-01-11T06:32:27;21.33;;;8.60;;
72920;SDS011;61064;51.654;5.476;2024-01-11T06:34:53;18.70;;;7.97;;
72920;SDS011;61064;51.654;5.476;2024-01-11T06:37:21;21.17;;;7.60;;
72920;SDS011;61064;51.654;5.476;2024-01-11T06:39:47;18.17;;;7.35;;
72920;SDS011;61064;51.654;5.476;2024-01-11T06:42:15;21.10;;;8.03;;
72920;SDS011;61064;51.654;5.476;2024-01-11T06:44:41;22.60;;;7.93;;
72920;SDS011;61064;51.654;5.476;2024-01-11T06:47:06;18.00;;;7.27;;
72920;SDS011;61064;51.654;5.476;2024-01-11T06:49:37;24.35;;;7.75;;
72920;SDS011;61064;51.654;5.476;2024-01-11T06:52:04;25.02;;;7.88;;
72920;SDS011;61064;51.654;5.476;2024-01-11T06:54:30;20.30;;;7.47;;
72920;SDS011;61064;51.654;5.476;2024-01-11T06:56:57;18.60;;;6.97;;
72920;SDS011;61064;51.654;5.476;2024-01-11T06:59:22;20.20;;;7.93;;
72920;SDS011;61064;51.654;5.476;2024-01-11T07:01:48;20.30;;;7.90;;
72920;SDS011;61064;51.654;5.476;2024-01-11T07:04:16;20.77;;;7.68;;
72920;SDS011;61064;51.654;5.476;2024-01-11T07:06:41;29.27;;;10.00;;
72920;SDS011;61064;51.654;5.476;2024-01-11T07:09:07;24.13;;;9.33;;
72920;SDS011;61064;51.654;5.476;2024-01-11T07:11:32;24.87;;;8.23;;
72920;SDS011;61064;51.654;5.476;2024-01-11T07:13:58;18.37;;;7.40;;
72920;SDS011;61064;51.654;5.476;2024-01-11T07:16:23;23.00;;;8.85;;
72920;SDS011;61064;51.654;5.476;2024-01-11T07:18:49;28.70;;;8.97;;
72920;SDS011;61064;51.654;5.476;2024-01-11T07:21:24;17.03;;;6.90;;
72920;SDS011;61064;51.654;5.476;2024-01-11T07:23:57;19.23;;;8.18;;
72920;SDS011;61064;51.654;5.476;2024-01-11T07:26:23;22.05;;;8.38;;
72920;SDS011;61064;51.654;5.476;2024-01-11T07:28:49;22.38;;;7.85;;
72920;SDS011;61064;51.654;5.476;2024-01-11T07:31:14;19.10;;;7.83;;
72920;SDS011;61064;51.654;5.476;2024-01-11T07:33:42;24.92;;;8.30;;
72920;SDS011;61064;51.654;5.476;2024-01-11T07:36:11;20.73;;;8.27;;
72920;SDS011;61064;51.654;5.476;2024-01-11T07:38:37;22.35;;;8.32;;
72920;SDS011;61064;51.654;5.476;2024-01-11T07:41:02;19.80;;;7.10;;
72920;SDS011;61064;51.654;5.476;2024-01-11T07:43:28;20.02;;;7.45;;
72920;SDS011;61064;51.654;5.476;2024-01-11T07:46:00;26.27;;;8.30;;
72920;SDS011;61064;51.654;5.476;2024-01-11T07:48:26;21.15;;;8.07;;
72920;SDS011;61064;51.654;5.476;2024-01-11T07:50:54;25.20;;;8.30;;
72920;SDS011;61064;51.654;5.476;2024-01-11T07:53:19;21.52;;;7.82;;
72920;SDS011;61064;51.654;5.476;2024-01-11T07:55:44;21.83;;;8.10;;
72920;SDS011;61064;51.654;5.476;2024-01-11T07:58:12;24.55;;;8.30;;
72920;SDS011;61064;51.654;5.476;2024-01-11T08:00:38;20.75;;;8.15;;
72920;SDS011;61064;51.654;5.476;2024-01-11T08:03:04;21.63;;;8.27;;
72920;SDS011;61064;51.654;5.476;2024-01-11T08:05:29;21.45;;;8.30;;
72920;SDS011;61064;51.654;5.476;2024-01-11T08:07:57;24.53;;;8.70;;
72920;SDS011;61064;51.654;5.476;2024-01-11T08:10:27;22.88;;;8.27;;
72920;SDS011;61064;51.654;5.476;2024-01-11T08:12:52;23.08;;;8.75;;
72920;SDS011;61064;51.654;5.476;2024-01-11T08:15:20;21.90;;;8.23;;
72920;SDS011;61064;51.654;5.476;2024-01-11T08:17:45;25.50;;;9.00;;
72920;SDS011;61064;51.654;5.476;2024-01-11T08:20:11;23.67;;;8.57;;
72920;SDS011;61064;51.654;5.476;2024-01-11T08:22:37;23.50;;;8.33;;
72920;SDS011;61064;51.654;5.476;2024-01-11T08:25:05;23.80;;;8.57;;
72920;SDS011;61064;51.654;5.476;2024-01-11T08:27:33;27.27;;;10.25;;
72920;SDS011;61064;51.654;5.476;2024-01-11T08:30:01;25.45;;;9.40;;
72920;SDS011;61064;51.654;5.476;2024-01-11T08:32:27;21.05;;;8.27;;
72920;SDS011;61064;51.654;5.476;2024-01-11T08:34:54;21.90;;;8.50;;
72920;SDS011;61064;51.654;5.476;2024-01-11T08:37:22;21.75;;;8.93;;
72920;SDS011;61064;51.654;5.476;2024-01-11T08:39:48;20.45;;;8.75;;
72920;SDS011;61064;51.654;5.476;2024-01-11T08:42:14;24.90;;;8.52;;
72920;SDS011;61064;51.654;5.476;2024-01-11T08:44:43;24.77;;;9.30;;
72920;SDS011;61064;51.654;5.476;2024-01-11T08:47:09;22.10;;;8.47;;
72920;SDS011;61064;51.654;5.476;2024-01-11T08:49:40;26.08;;;10.75;;
72920;SDS011;61064;51.654;5.476;2024-01-11T08:52:07;23.52;;;9.82;;
72920;SDS011;61064;51.654;5.476;2024-01-11T08:54:33;25.50;;;9.75;;
72920;SDS011;61064;51.654;5.476;2024-01-11T08:56:58;24.53;;;9.00;;
72920;SDS011;61064;51.654;5.476;2024-01-11T08:59:24;22.90;;;9.70;;
72920;SDS011;61064;51.654;5.476;2024-01-11T09:01:52;22.70;;;9.85;;
72920;SDS011;61064;51.654;5.476;2024-01-11T09:04:18;26.63;;;10.47;;
72920;SDS011;61064;51.654;5.476;2024-01-11T09:06:45;28.48;;;10.15;;
72920;SDS011;61064;51.654;5.476;2024-01-11T09:09:11;27.27;;;9.43;;
72920;SDS011;61064;51.654;5.476;2024-01-11T09:11:40;25.85;;;10.23;;
72920;SDS011;61064;51.654;5.476;2024-01-11T09:14:11;24.08;;;9.40;;
72920;SDS011;61064;51.654;5.476;2024-01-11T09:16:39;25.77;;;10.45;;
72920;SDS011;61064;51.654;5.476;2024-01-11T09:19:05;25.97;;;10.57;;
72920;SDS011;61064;51.654;5.476;2024-01-11T09:21:37;28.70;;;10.75;;
72920;SDS011;61064;51.654;5.476;2024-01-11T09:24:02;26.40;;;10.03;;
72920;SDS011;61064;51.654;5.476;2024-01-11T09:26:28;24.73;;;10.23;;
72920;SDS011;61064;51.654;5.476;2024-01-11T09:28:59;28.70;;;11.63;;
72920;SDS011;61064;51.654;5.476;2024-01-11T09:31:25;25.80;;;10.43;;
72920;SDS011;61064;51.654;5.476;2024-01-11T09:33:52;25.80;;;10.50;;
72920;SDS011;61064;51.654;5.476;2024-01-11T09:36:25;23.67;;;10.57;;
72920;SDS011;61064;51.654;5.476;2024-01-11T09:38:58;28.45;;;11.27;;
72920;SDS011;61064;51.654;5.476;2024-01-11T09:41:29;29.27;;;11.80;;
72920;SDS011;61064;51.654;5.476;2024-01-11T09:43:59;36.60;;;11.73;;
72920;SDS011;61064;51.654;5.476;2024-01-11T09:46:30;28.25;;;11.57;;
72920;SDS011;61064;51.654;5.476;2024-01-11T09:48:55;28.05;;;11.98;;
72920;SDS011;61064;51.654;5.476;2024-01-11T09:51:23;27.45;;;10.82;;
72920;SDS011;61064;51.654;5.476;2024-01-11T09:53:51;29.13;;;11.35;;
72920;SDS011;61064;51.654;5.476;2024-01-11T09:56:22;27.77;;;10.75;;
72920;SDS011;61064;51.654;5.476;2024-01-11T09:58:54;26.98;;;10.40;;
72920;SDS011;61064;51.654;5.476;2024-01-11T10:01:19;32.15;;;12.80;;
72920;SDS011;61064;51.654;5.476;2024-01-11T10:04:07;33.95;;;13.25;;
72920;SDS011;61064;51.654;5.476;2024-01-11T10:06:32;30.17;;;11.88;;
72920;SDS011;61064;51.654;5.476;2024-01-11T10:09:02;28.17;;;12.13;;
72920;SDS011;61064;51.654;5.476;2024-01-11T10:11:27;32.28;;;10.88;;
72920;SDS011;61064;51.654;5.476;2024-01-11T10:13:56;33.03;;;12.17;;
72920;SDS011;61064;51.654;5.476;2024-01-11T10:16:22;27.05;;;11.65;;
72920;SDS011;61064;51.654;5.476;2024-01-11T10:18:49;31.67;;;12.55;;
72920;SDS011;61064;51.654;5.476;2024-01-11T10:21:16;28.65;;;12.93;;
72920;SDS011;61064;51.654;5.476;2024-01-11T10:23:42;30.03;;;11.53;;
72920;SDS011;61064;51.654;5.476;2024-01-11T10:26:07;27.83;;;11.37;;
72920;SDS011;61064;51.654;5.476;2024-01-11T10:28:33;26.97;;;10.67;;
72920;SDS011;61064;51.654;5.476;2024-01-11T10:31:05;29.77;;;11.65;;
72920;SDS011;61064;51.654;5.476;2024-01-11T10:33:33;29.30;;;13.15;;
72920;SDS011;61064;51.654;5.476;2024-01-11T10:36:00;29.70;;;13.45;;
72920;SDS011;61064;51.654;5.476;2024-01-11T10:38:25;30.92;;;12.95;;
72920;SDS011;61064;51.654;5.476;2024-01-11T10:40:54;29.50;;;12.40;;
72920;SDS011;61064;51.654;5.476;2024-01-11T10:43:21;29.02;;;12.27;;
72920;SDS011;61064;51.654;5.476;2024-01-11T10:45:49;24.95;;;9.68;;
72920;SDS011;61064;51.654;5.476;2024-01-11T10:48:23;28.67;;;11.93;;
72920;SDS011;61064;51.654;5.476;2024-01-11T10:50:55;29.17;;;11.73;;
72920;SDS011;61064;51.654;5.476;2024-01-11T10:53:25;33.70;;;12.18;;
72920;SDS011;61064;51.654;5.476;2024-01-11T10:56:01;29.20;;;12.55;;
72920;SDS011;61064;51.654;5.476;2024-01-11T10:58:31;28.95;;;12.27;;
72920;SDS011;61064;51.654;5.476;2024-01-11T11:01:01;25.33;;;10.90;;
72920;SDS011;61064;51.654;5.476;2024-01-11T11:03:30;27.07;;;12.20;;
72920;SDS011;61064;51.654;5.476;2024-01-11T11:06:07;27.67;;;11.60;;
72920;SDS011;61064;51.654;5.476;2024-01-11T11:08:34;30.08;;;11.43;;
72920;SDS011;61064;51.654;5.476;2024-01-11T11:11:00;28.93;;;11.07;;
72920;SDS011;61064;51.654;5.476;2024-01-11T11:13:28;30.70;;;12.25;;
72920;SDS011;61064;51.654;5.476;2024-01-11T11:15:54;28.13;;;11.70;;
72920;SDS011;61064;51.654;5.476;2024-01-11T11:18:22;27.83;;;12.38;;
72920;SDS011;61064;51.654;5.476;2024-01-11T11:20:48;27.05;;;11.55;;
72920;SDS011;61064;51.654;5.476;2024-01-11T11:23:15;29.25;;;12.50;;
72920;SDS011;61064;51.654;5.476;2024-01-11T11:25:42;30.75;;;12.52;;
72920;SDS011;61064;51.654;5.476;2024-01-11T11:28:14;29.48;;;12.13;;
72920;SDS011;61064;51.654;5.476;2024-01-11T11:30:47;29.05;;;11.00;;
72920;SDS011;61064;51.654;5.476;2024-01-11T11:33:18;26.75;;;11.18;;
72920;SDS011;61064;51.654;5.476;2024-01-11T11:35:47;25.45;;;10.48;;
72920;SDS011;61064;51.654;5.476;2024-01-11T11:38:20;31.48;;;12.13;;
72920;SDS011;61064;51.654;5.476;2024-01-11T11:40:51;27.92;;;9.57;;
72920;SDS011;61064;51.654;5.476;2024-01-11T11:43:22;28.20;;;11.27;;
72920;SDS011;61064;51.654;5.476;2024-01-11T11:45:48;30.27;;;11.77;;
72920;SDS011;61064;51.654;5.476;2024-01-11T11:51:12;23.65;;;9.70;;
72920;SDS011;61064;51.654;5.476;2024-01-11T11:53:45;26.20;;;11.80;;
72920;SDS011;61064;51.654;5.476;2024-01-11T11:56:14;34.22;;;12.40;;
72920;SDS011;61064;51.654;5.476;2024-01-11T11:58:45;29.15;;;11.30;;
72920;SDS011;61064;51.654;5.476;2024-01-11T12:01:13;27.52;;;11.40;;
72920;SDS011;61064;51.654;5.476;2024-01-11T12:03:40;29.50;;;11.93;;
72920;SDS011;61064;51.654;5.476;2024-01-11T12:06:16;28.88;;;12.10;;
72920;SDS011;61064;51.654;5.476;2024-01-11T12:08:49;28.70;;;11.00;;
72920;SDS011;61064;51.654;5.476;2024-01-11T12:11:18;26.67;;;11.35;;
72920;SDS011;61064;51.654;5.476;2024-01-11T12:13:47;25.63;;;11.60;;
72920;SDS011;61064;51.654;5.476;2024-01-11T12:16:14;24.90;;;10.88;;
72920;SDS011;61064;51.654;5.476;2024-01-11T12:18:45;27.85;;;11.68;;
72920;SDS011;61064;51.654;5.476;2024-01-11T12:21:13;29.67;;;11.32;;
72920;SDS011;61064;51.654;5.476;2024-01-11T12:23:46;27.25;;;11.73;;
72920;SDS011;61064;51.654;5.476;2024-01-11T12:26:23;28.15;;;11.43;;
72920;SDS011;61064;51.654;5.476;2024-01-11T12:28:52;26.83;;;12.18;;
72920;SDS011;61064;51.654;5.476;2024-01-11T12:31:31;30.50;;;12.43;;
72920;SDS011;61064;51.654;5.476;2024-01-11T12:33:57;37.58;;;14.50;;
72920;SDS011;61064;51.654;5.476;2024-01-11T12:36:23;32.53;;;13.60;;
72920;SDS011;61064;51.654;5.476;2024-01-11T12:38:54;28.10;;;12.75;;
72920;SDS011;61064;51.654;5.476;2024-01-11T12:41:29;30.30;;;12.50;;
72920;SDS011;61064;51.654;5.476;2024-01-11T12:43:55;28.70;;;11.77;;
72920;SDS011;61064;51.654;5.476;2024-01-11T12:46:20;29.13;;;12.83;;
72920;SDS011;61064;51.654;5.476;2024-01-11T12:48:46;27.30;;;11.73;;
72920;SDS011;61064;51.654;5.476;2024-01-11T12:51:18;22.95;;;9.43;;
72920;SDS011;61064;51.654;5.476;2024-01-11T12:53:45;18.57;;;6.63;;
72920;SDS011;61064;51.654;5.476;2024-01-11T12:56:14;16.50;;;6.00;;
72920;SDS011;61064;51.654;5.476;2024-01-11T12:58:40;18.80;;;6.57;;
72920;SDS011;61064;51.654;5.476;2024-01-11T13:01:06;16.15;;;5.53;;
72920;SDS011;61064;51.654;5.476;2024-01-11T13:03:35;17.33;;;6.13;;
72920;SDS011;61064;51.654;5.476;2024-01-11T13:06:03;15.57;;;5.10;;
72920;SDS011;61064;51.654;5.476;2024-01-11T13:08:31;14.45;;;5.35;;
72920;SDS011;61064;51.654;5.476;2024-01-11T13:10:57;19.15;;;5.50;;
72920;SDS011;61064;51.654;5.476;2024-01-11T13:13:23;16.33;;;5.00;;
72920;SDS011;61064;51.654;5.476;2024-01-11T13:15:48;18.20;;;5.57;;
72920;SDS011;61064;51.654;5.476;2024-01-11T13:18:14;15.38;;;5.32;;
72920;SDS011;61064;51.654;5.476;2024-01-11T13:20:39;16.58;;;5.47;;
72920;SDS011;61064;51.654;5.476;2024-01-11T13:23:15;17.60;;;5.68;;
72920;SDS011;61064;51.654;5.476;2024-01-11T13:25:43;18.60;;;5.90;;
72920;SDS011;61064;51.654;5.476;2024-01-11T13:28:09;17.70;;;5.65;;
72920;SDS011;61064;51.654;5.476;2024-01-11T13:30:38;18.27;;;6.10;;
72920;SDS011;61064;51.654;5.476;2024-01-11T13:33:08;16.50;;;5.75;;
72920;SDS011;61064;51.654;5.476;2024-01-11T13:35:37;21.05;;;7.07;;
72920;SDS011;61064;51.654;5.476;2024-01-11T13:38:03;20.30;;;7.37;;
72920;SDS011;61064;51.654;5.476;2024-01-11T13:40:32;20.38;;;7.10;;
72920;SDS011;61064;51.654;5.476;2024-01-11T13:42:58;19.13;;;6.90;;
72920;SDS011;61064;51.654;5.476;2024-01-11T13:45:24;20.33;;;6.47;;
72920;SDS011;61064;51.654;5.476;2024-01-11T13:47:51;19.03;;;6.80;;
72920;SDS011;61064;51.654;5.476;2024-01-11T13:50:20;18.95;;;6.18;;
72920;SDS011;61064;51.654;5.476;2024-01-11T13:52:46;17.55;;;6.00;;
72920;SDS011;61064;51.654;5.476;2024-01-11T13:55:15;21.10;;;6.07;;
72920;SDS011;61064;51.654;5.476;2024-01-11T13:57:40;16.67;;;5.60;;
72920;SDS011;61064;51.654;5.476;2024-01-11T14:00:07;18.52;;;5.82;;
72920;SDS011;61064;51.654;5.476;2024-01-11T14:02:36;18.17;;;5.65;;
72920;SDS011;61064;51.654;5.476;2024-01-11T14:05:05;16.73;;;5.23;;
72920;SDS011;61064;51.654;5.476;2024-01-11T14:07:37;20.77;;;6.05;;
72920;SDS011;61064;51.654;5.476;2024-01-11T14:10:04;17.73;;;6.40;;
72920;SDS011;61064;51.654;5.476;2024-01-11T14:12:31;18.85;;;6.00;;
72920;SDS011;61064;51.654;5.476;2024-01-11T14:14:57;18.10;;;6.13;;
72920;SDS011;61064;51.654;5.476;2024-01-11T14:17:22;22.33;;;6.57;;
72920;SDS011;61064;51.654;5.476;2024-01-11T14:19:48;19.73;;;5.90;;
72920;SDS011;61064;51.654;5.476;2024-01-11T14:22:13;16.13;;;5.40;;
72920;SDS011;61064;51.654;5.476;2024-01-11T14:24:39;21.83;;;6.70;;
72920;SDS011;61064;51.654;5.476;2024-01-11T14:27:04;18.73;;;6.60;;
72920;SDS011;61064;51.654;5.476;2024-01-11T14:29:29;22.17;;;6.90;;
72920;SDS011;61064;51.654;5.476;2024-01-11T14:31:55;20.53;;;6.93;;